sensor_id;sensor_type;location;lat;lon;timestamp;temperature;humidity
27314;DHT22;14800;48.174;9.798;2022-09-03T00:02:42;18.10;67.70
27314;DHT22;14800;48.174;9.798;2022-09-03T00:13:34;17.80;69.00
27314;DHT22;14800;48.174;9.798;2022-09-03T00:16:02;17.70;68.90
27314;DHT22;14800;48.174;9.798;2022-09-03T00:18:44;17.60;68.80
27314;DHT22;14800;48.174;9.798;2022-09-03T00:23:51;17.50;69.70
27314;DHT22;14800;48.174;9.798;2022-09-03T00:26:23;17.40;69.20
27314;DHT22;14800;48.174;9.798;2022-09-03T00:31:40;17.40;69.30
27314;DHT22;14800;48.174;9.798;2022-09-03T00:34:29;17.40;69.30
27314;DHT22;14800;48.174;9.798;2022-09-03T00:36:56;17.40;69.40
27314;DHT22;14800;48.174;9.798;2022-09-03T00:39:24;17.40;69.20
27314;DHT22;14800;48.174;9.798;2022-09-03T00:53:35;17.30;69.90
27314;DHT22;14800;48.174;9.798;2022-09-03T00:58:57;17.40;69.30
27314;DHT22;14800;48.174;9.798;2022-09-03T01:01:39;17.40;69.50
27314;DHT22;14800;48.174;9.798;2022-09-03T01:20:21;17.40;69.10
27314;DHT22;14800;48.174;9.798;2022-09-03T01:40:00;17.30;69.20
27314;DHT22;14800;48.174;9.798;2022-09-03T01:50:49;17.30;69.50
27314;DHT22;14800;48.174;9.798;2022-09-03T01:58:38;17.40;69.40
27314;DHT22;14800;48.174;9.798;2022-09-03T02:01:16;17.30;69.20
27314;DHT22;14800;48.174;9.798;2022-09-03T02:03:44;17.30;69.30
27314;DHT22;14800;48.174;9.798;2022-09-03T02:06:11;17.20;69.30
27314;DHT22;14800;48.174;9.798;2022-09-03T02:08:37;17.20;69.40
27314;DHT22;14800;48.174;9.798;2022-09-03T02:11:06;17.20;69.50
27314;DHT22;14800;48.174;9.798;2022-09-03T02:13:41;17.20;69.50
27314;DHT22;14800;48.174;9.798;2022-09-03T02:16:16;17.20;70.00
27314;DHT22;14800;48.174;9.798;2022-09-03T02:18:50;17.10;69.90
27314;DHT22;14800;48.174;9.798;2022-09-03T02:21:21;17.00;71.10
27314;DHT22;14800;48.174;9.798;2022-09-03T02:23:48;17.00;70.40
27314;DHT22;14800;48.174;9.798;2022-09-03T02:26:17;17.00;70.60
27314;DHT22;14800;48.174;9.798;2022-09-03T02:28:44;17.00;70.90
27314;DHT22;14800;48.174;9.798;2022-09-03T02:31:10;17.00;70.90
27314;DHT22;14800;48.174;9.798;2022-09-03T02:33:38;17.00;71.00
27314;DHT22;14800;48.174;9.798;2022-09-03T02:36:07;17.00;71.00
27314;DHT22;14800;48.174;9.798;2022-09-03T02:38:33;17.00;71.30
27314;DHT22;14800;48.174;9.798;2022-09-03T02:40:58;16.90;71.00
27314;DHT22;14800;48.174;9.798;2022-09-03T02:46:01;16.90;71.30
27314;DHT22;14800;48.174;9.798;2022-09-03T02:48:27;16.90;71.30
27314;DHT22;14800;48.174;9.798;2022-09-03T02:50:53;16.90;71.30
27314;DHT22;14800;48.174;9.798;2022-09-03T02:53:19;16.90;71.30
27314;DHT22;14800;48.174;9.798;2022-09-03T02:55:44;16.90;71.30
27314;DHT22;14800;48.174;9.798;2022-09-03T02:58:10;16.90;71.50
27314;DHT22;14800;48.174;9.798;2022-09-03T03:00:36;16.90;71.70
27314;DHT22;14800;48.174;9.798;2022-09-03T03:03:03;16.90;71.80
27314;DHT22;14800;48.174;9.798;2022-09-03T03:05:43;17.00;71.80
27314;DHT22;14800;48.174;9.798;2022-09-03T03:08:10;17.00;72.00
27314;DHT22;14800;48.174;9.798;2022-09-03T03:10:40;17.00;71.50
27314;DHT22;14800;48.174;9.798;2022-09-03T03:13:05;17.00;71.20
27314;DHT22;14800;48.174;9.798;2022-09-03T03:15:31;17.00;71.00
27314;DHT22;14800;48.174;9.798;2022-09-03T03:17:57;17.00;71.30
27314;DHT22;14800;48.174;9.798;2022-09-03T03:20:22;17.00;71.60
27314;DHT22;14800;48.174;9.798;2022-09-03T03:22:48;17.00;71.60
27314;DHT22;14800;48.174;9.798;2022-09-03T03:25:14;17.00;71.60
27314;DHT22;14800;48.174;9.798;2022-09-03T03:27:39;17.00;71.70
27314;DHT22;14800;48.174;9.798;2022-09-03T03:30:07;17.00;71.80
27314;DHT22;14800;48.174;9.798;2022-09-03T03:32:35;16.90;71.80
27314;DHT22;14800;48.174;9.798;2022-09-03T03:35:01;16.90;71.80
27314;DHT22;14800;48.174;9.798;2022-09-03T03:37:26;16.90;72.00
27314;DHT22;14800;48.174;9.798;2022-09-03T03:39:52;16.90;72.00
27314;DHT22;14800;48.174;9.798;2022-09-03T03:42:17;16.90;71.90
27314;DHT22;14800;48.174;9.798;2022-09-03T03:44:43;16.80;72.00
27314;DHT22;14800;48.174;9.798;2022-09-03T03:47:09;16.80;72.20
27314;DHT22;14800;48.174;9.798;2022-09-03T03:49:35;16.80;72.30
27314;DHT22;14800;48.174;9.798;2022-09-03T03:52:00;16.80;72.50
27314;DHT22;14800;48.174;9.798;2022-09-03T03:54:27;16.80;72.60
27314;DHT22;14800;48.174;9.798;2022-09-03T03:56:53;16.80;72.90
27314;DHT22;14800;48.174;9.798;2022-09-03T03:59:19;16.80;73.00
27314;DHT22;14800;48.174;9.798;2022-09-03T04:01:44;16.80;73.10
27314;DHT22;14800;48.174;9.798;2022-09-03T04:04:10;16.80;73.20
27314;DHT22;14800;48.174;9.798;2022-09-03T04:06:35;16.80;73.00
27314;DHT22;14800;48.174;9.798;2022-09-03T04:09:01;16.80;72.80
27314;DHT22;14800;48.174;9.798;2022-09-03T04:11:27;16.80;72.90
27314;DHT22;14800;48.174;9.798;2022-09-03T04:13:53;16.80;73.00
27314;DHT22;14800;48.174;9.798;2022-09-03T04:16:26;16.90;73.20
27314;DHT22;14800;48.174;9.798;2022-09-03T04:18:55;16.90;73.50
27314;DHT22;14800;48.174;9.798;2022-09-03T04:21:24;16.90;73.00
27314;DHT22;14800;48.174;9.798;2022-09-03T04:23:50;16.90;73.30
27314;DHT22;14800;48.174;9.798;2022-09-03T04:26:28;16.90;73.80
27314;DHT22;14800;48.174;9.798;2022-09-03T04:28:57;16.90;73.60
27314;DHT22;14800;48.174;9.798;2022-09-03T04:31:23;16.90;73.50
27314;DHT22;14800;48.174;9.798;2022-09-03T04:33:49;16.90;73.70
27314;DHT22;14800;48.174;9.798;2022-09-03T04:36:20;16.90;74.00
27314;DHT22;14800;48.174;9.798;2022-09-03T04:38:48;16.90;74.50
27314;DHT22;14800;48.174;9.798;2022-09-03T04:41:17;16.80;74.00
27314;DHT22;14800;48.174;9.798;2022-09-03T04:43:43;16.90;74.10
27314;DHT22;14800;48.174;9.798;2022-09-03T04:46:12;16.80;74.00
27314;DHT22;14800;48.174;9.798;2022-09-03T04:48:38;16.80;74.20
27314;DHT22;14800;48.174;9.798;2022-09-03T04:51:06;16.90;74.10
27314;DHT22;14800;48.174;9.798;2022-09-03T04:53:55;16.90;74.40
27314;DHT22;14800;48.174;9.798;2022-09-03T04:56:23;16.90;75.50
27314;DHT22;14800;48.174;9.798;2022-09-03T04:58:54;16.90;74.90
27314;DHT22;14800;48.174;9.798;2022-09-03T05:01:22;16.90;75.50
27314;DHT22;14800;48.174;9.798;2022-09-03T05:03:48;16.90;75.30
27314;DHT22;14800;48.174;9.798;2022-09-03T05:06:17;17.00;75.60
27314;DHT22;14800;48.174;9.798;2022-09-03T05:08:46;17.00;75.60
27314;DHT22;14800;48.174;9.798;2022-09-03T05:11:13;17.00;75.80
27314;DHT22;14800;48.174;9.798;2022-09-03T05:13:39;17.00;76.00
27314;DHT22;14800;48.174;9.798;2022-09-03T05:16:07;17.00;76.00
27314;DHT22;14800;48.174;9.798;2022-09-03T05:18:34;17.00;76.00
27314;DHT22;14800;48.174;9.798;2022-09-03T05:21:08;17.10;76.00
27314;DHT22;14800;48.174;9.798;2022-09-03T05:23:39;17.10;77.00
27314;DHT22;14800;48.174;9.798;2022-09-03T05:26:08;17.10;75.70
27314;DHT22;14800;48.174;9.798;2022-09-03T05:28:35;17.20;75.80
27314;DHT22;14800;48.174;9.798;2022-09-03T05:31:04;17.20;75.50
27314;DHT22;14800;48.174;9.798;2022-09-03T05:33:36;17.20;75.40
27314;DHT22;14800;48.174;9.798;2022-09-03T05:36:04;17.20;75.70
27314;DHT22;14800;48.174;9.798;2022-09-03T05:38:31;17.20;75.60
27314;DHT22;14800;48.174;9.798;2022-09-03T05:41:05;17.30;75.50
27314;DHT22;14800;48.174;9.798;2022-09-03T05:43:31;17.30;75.80
27314;DHT22;14800;48.174;9.798;2022-09-03T05:48:25;17.40;75.40
27314;DHT22;14800;48.174;9.798;2022-09-03T05:51:16;17.40;75.30
27314;DHT22;14800;48.174;9.798;2022-09-03T05:53:47;17.40;75.60
27314;DHT22;14800;48.174;9.798;2022-09-03T05:56:16;17.40;75.60
27314;DHT22;14800;48.174;9.798;2022-09-03T05:58:44;17.40;75.50
27314;DHT22;14800;48.174;9.798;2022-09-03T06:01:12;17.40;75.60
27314;DHT22;14800;48.174;9.798;2022-09-03T06:03:42;17.40;76.50
27314;DHT22;14800;48.174;9.798;2022-09-03T06:06:08;17.50;75.60
27314;DHT22;14800;48.174;9.798;2022-09-03T06:08:35;17.50;75.60
27314;DHT22;14800;48.174;9.798;2022-09-03T06:11:03;17.50;75.80
27314;DHT22;14800;48.174;9.798;2022-09-03T06:13:30;17.60;75.80
27314;DHT22;14800;48.174;9.798;2022-09-03T06:16:05;17.60;76.00
27314;DHT22;14800;48.174;9.798;2022-09-03T06:18:31;17.60;76.10
27314;DHT22;14800;48.174;9.798;2022-09-03T06:21:01;17.60;76.30
27314;DHT22;14800;48.174;9.798;2022-09-03T06:23:28;17.70;76.60
27314;DHT22;14800;48.174;9.798;2022-09-03T06:26:04;17.70;76.80
27314;DHT22;14800;48.174;9.798;2022-09-03T06:28:31;17.70;77.70
27314;DHT22;14800;48.174;9.798;2022-09-03T06:30:59;17.70;77.20
27314;DHT22;14800;48.174;9.798;2022-09-03T06:33:25;17.80;77.40
27314;DHT22;14800;48.174;9.798;2022-09-03T06:35:54;17.80;77.60
27314;DHT22;14800;48.174;9.798;2022-09-03T06:38:24;17.80;78.20
27314;DHT22;14800;48.174;9.798;2022-09-03T06:40:55;17.80;78.20
27314;DHT22;14800;48.174;9.798;2022-09-03T06:43:21;17.80;78.60
27314;DHT22;14800;48.174;9.798;2022-09-03T06:46:01;17.90;78.90
27314;DHT22;14800;48.174;9.798;2022-09-03T06:48:28;17.90;80.00
27314;DHT22;14800;48.174;9.798;2022-09-03T06:51:01;17.90;79.20
27314;DHT22;14800;48.174;9.798;2022-09-03T06:53:32;18.00;79.90
27314;DHT22;14800;48.174;9.798;2022-09-03T06:56:09;18.00;79.60
27314;DHT22;14800;48.174;9.798;2022-09-03T06:58:40;18.10;80.50
27314;DHT22;14800;48.174;9.798;2022-09-03T07:03:36;18.20;80.30
27314;DHT22;14800;48.174;9.798;2022-09-03T07:06:04;18.20;80.40
27314;DHT22;14800;48.174;9.798;2022-09-03T07:08:30;18.30;80.60
27314;DHT22;14800;48.174;9.798;2022-09-03T07:11:01;18.40;80.50
27314;DHT22;14800;48.174;9.798;2022-09-03T07:13:40;18.50;80.80
27314;DHT22;14800;48.174;9.798;2022-09-03T07:16:11;18.50;80.70
27314;DHT22;14800;48.174;9.798;2022-09-03T07:18:38;18.60;81.30
27314;DHT22;14800;48.174;9.798;2022-09-03T07:21:06;18.60;80.80
27314;DHT22;14800;48.174;9.798;2022-09-03T07:23:33;18.70;81.00
27314;DHT22;14800;48.174;9.798;2022-09-03T07:26:02;18.80;80.90
27314;DHT22;14800;48.174;9.798;2022-09-03T07:28:29;18.90;81.10
27314;DHT22;14800;48.174;9.798;2022-09-03T07:31:02;18.90;80.80
27314;DHT22;14800;48.174;9.798;2022-09-03T07:33:29;19.10;80.90
27314;DHT22;14800;48.174;9.798;2022-09-03T07:36:00;19.10;80.30
27314;DHT22;14800;48.174;9.798;2022-09-03T07:38:26;19.20;80.30
27314;DHT22;14800;48.174;9.798;2022-09-03T07:41:00;19.30;80.10
27314;DHT22;14800;48.174;9.798;2022-09-03T07:43:27;19.40;79.90
27314;DHT22;14800;48.174;9.798;2022-09-03T07:45:54;19.50;80.30
27314;DHT22;14800;48.174;9.798;2022-09-03T07:48:21;19.50;79.20
27314;DHT22;14800;48.174;9.798;2022-09-03T07:50:47;19.60;78.70
27314;DHT22;14800;48.174;9.798;2022-09-03T07:53:16;19.70;78.60
27314;DHT22;14800;48.174;9.798;2022-09-03T07:55:42;19.80;79.20
27314;DHT22;14800;48.174;9.798;2022-09-03T07:58:09;19.90;78.90
27314;DHT22;14800;48.174;9.798;2022-09-03T08:00:39;19.90;77.20
27314;DHT22;14800;48.174;9.798;2022-09-03T08:03:05;20.10;77.00
27314;DHT22;14800;48.174;9.798;2022-09-03T08:05:34;20.00;76.70
27314;DHT22;14800;48.174;9.798;2022-09-03T08:08:04;20.10;76.30
27314;DHT22;14800;48.174;9.798;2022-09-03T08:10:33;20.10;76.00
27314;DHT22;14800;48.174;9.798;2022-09-03T08:12:58;20.10;75.60
27314;DHT22;14800;48.174;9.798;2022-09-03T08:15:25;20.10;75.40
27314;DHT22;14800;48.174;9.798;2022-09-03T08:17:51;20.20;75.40
27314;DHT22;14800;48.174;9.798;2022-09-03T08:20:18;20.20;75.40
27314;DHT22;14800;48.174;9.798;2022-09-03T08:22:43;20.30;75.10
27314;DHT22;14800;48.174;9.798;2022-09-03T08:25:09;20.30;74.90
27314;DHT22;14800;48.174;9.798;2022-09-03T08:27:36;20.30;74.70
27314;DHT22;14800;48.174;9.798;2022-09-03T08:30:01;20.40;74.30
27314;DHT22;14800;48.174;9.798;2022-09-03T08:32:28;20.40;74.00
27314;DHT22;14800;48.174;9.798;2022-09-03T08:34:54;20.40;73.90
27314;DHT22;14800;48.174;9.798;2022-09-03T08:37:20;20.40;73.90
27314;DHT22;14800;48.174;9.798;2022-09-03T08:39:52;20.50;73.90
27314;DHT22;14800;48.174;9.798;2022-09-03T08:45:01;20.50;73.70
27314;DHT22;14800;48.174;9.798;2022-09-03T08:47:47;20.50;73.90
27314;DHT22;14800;48.174;9.798;2022-09-03T08:53:14;20.60;74.50
27314;DHT22;14800;48.174;9.798;2022-09-03T09:05:54;20.90;73.70
27314;DHT22;14800;48.174;9.798;2022-09-03T09:13:57;21.20;73.40
27314;DHT22;14800;48.174;9.798;2022-09-03T09:21:58;21.40;72.10
27314;DHT22;14800;48.174;9.798;2022-09-03T09:24:27;21.50;71.00
27314;DHT22;14800;48.174;9.798;2022-09-03T09:27:01;21.60;71.30
27314;DHT22;14800;48.174;9.798;2022-09-03T09:29:36;21.60;71.30
27314;DHT22;14800;48.174;9.798;2022-09-03T09:32:03;21.70;70.90
27314;DHT22;14800;48.174;9.798;2022-09-03T09:34:34;21.80;71.10
27314;DHT22;14800;48.174;9.798;2022-09-03T09:37:03;21.90;70.10
27314;DHT22;14800;48.174;9.798;2022-09-03T09:39:30;22.00;69.90
27314;DHT22;14800;48.174;9.798;2022-09-03T09:42:09;22.10;70.00
27314;DHT22;14800;48.174;9.798;2022-09-03T09:44:41;22.10;69.60
27314;DHT22;14800;48.174;9.798;2022-09-03T09:47:28;22.20;70.90
27314;DHT22;14800;48.174;9.798;2022-09-03T09:49:58;22.30;69.00
27314;DHT22;14800;48.174;9.798;2022-09-03T09:52:26;22.40;68.30
27314;DHT22;14800;48.174;9.798;2022-09-03T09:57:33;22.50;66.70
27314;DHT22;14800;48.174;9.798;2022-09-03T10:00:16;22.60;67.00
27314;DHT22;14800;48.174;9.798;2022-09-03T10:02:52;22.70;67.00
27314;DHT22;14800;48.174;9.798;2022-09-03T10:05:30;22.70;65.50
27314;DHT22;14800;48.174;9.798;2022-09-03T10:08:03;22.80;64.80
27314;DHT22;14800;48.174;9.798;2022-09-03T10:10:32;22.80;64.80
27314;DHT22;14800;48.174;9.798;2022-09-03T10:16:07;22.80;65.50
27314;DHT22;14800;48.174;9.798;2022-09-03T10:18:38;22.80;65.90
27314;DHT22;14800;48.174;9.798;2022-09-03T10:21:14;22.80;65.90
27314;DHT22;14800;48.174;9.798;2022-09-03T10:23:58;22.80;66.50
27314;DHT22;14800;48.174;9.798;2022-09-03T10:26:24;22.90;65.50
27314;DHT22;14800;48.174;9.798;2022-09-03T10:28:59;22.90;65.70
27314;DHT22;14800;48.174;9.798;2022-09-03T10:42:40;23.20;66.10
27314;DHT22;14800;48.174;9.798;2022-09-03T10:51:00;23.40;65.30
27314;DHT22;14800;48.174;9.798;2022-09-03T11:04:40;23.80;64.50
27314;DHT22;14800;48.174;9.798;2022-09-03T11:07:04;23.90;64.50
27314;DHT22;14800;48.174;9.798;2022-09-03T11:09:40;23.90;63.90
27314;DHT22;14800;48.174;9.798;2022-09-03T11:12:12;24.00;63.40
27314;DHT22;14800;48.174;9.798;2022-09-03T11:14:50;24.10;63.30
27314;DHT22;14800;48.174;9.798;2022-09-03T11:17:25;24.20;63.40
27314;DHT22;14800;48.174;9.798;2022-09-03T11:20:02;24.30;62.50
27314;DHT22;14800;48.174;9.798;2022-09-03T11:22:31;24.40;62.60
27314;DHT22;14800;48.174;9.798;2022-09-03T11:24:58;24.50;62.70
27314;DHT22;14800;48.174;9.798;2022-09-03T11:30:12;24.70;60.50
27314;DHT22;14800;48.174;9.798;2022-09-03T11:35:37;24.80;59.80
27314;DHT22;14800;48.174;9.798;2022-09-03T11:38:26;24.80;58.00
27314;DHT22;14800;48.174;9.798;2022-09-03T11:40:59;24.70;58.60
27314;DHT22;14800;48.174;9.798;2022-09-03T11:43:28;24.70;59.20
27314;DHT22;14800;48.174;9.798;2022-09-03T11:48:33;24.20;62.20
27314;DHT22;14800;48.174;9.798;2022-09-03T11:51:00;24.00;62.40
27314;DHT22;14800;48.174;9.798;2022-09-03T11:53:33;23.70;63.10
27314;DHT22;14800;48.174;9.798;2022-09-03T11:56:19;23.40;64.30
27314;DHT22;14800;48.174;9.798;2022-09-03T11:58:45;23.20;65.70
27314;DHT22;14800;48.174;9.798;2022-09-03T12:01:13;23.00;66.40
27314;DHT22;14800;48.174;9.798;2022-09-03T12:09:52;22.60;69.00
27314;DHT22;14800;48.174;9.798;2022-09-03T12:18:26;22.50;71.80
27314;DHT22;14800;48.174;9.798;2022-09-03T12:23:48;22.40;71.60
27314;DHT22;14800;48.174;9.798;2022-09-03T12:26:19;22.40;72.10
27314;DHT22;14800;48.174;9.798;2022-09-03T12:28:47;22.40;70.90
27314;DHT22;14800;48.174;9.798;2022-09-03T12:31:17;22.40;70.40
27314;DHT22;14800;48.174;9.798;2022-09-03T12:33:57;22.40;70.30
27314;DHT22;14800;48.174;9.798;2022-09-03T12:36:37;22.30;70.00
27314;DHT22;14800;48.174;9.798;2022-09-03T12:39:26;22.30;70.10
27314;DHT22;14800;48.174;9.798;2022-09-03T12:42:06;22.20;68.30
27314;DHT22;14800;48.174;9.798;2022-09-03T12:49:38;22.10;68.80
27314;DHT22;14800;48.174;9.798;2022-09-03T12:52:28;22.10;69.40
27314;DHT22;14800;48.174;9.798;2022-09-03T12:57:39;22.10;69.50
27314;DHT22;14800;48.174;9.798;2022-09-03T13:00:09;22.10;69.20
27314;DHT22;14800;48.174;9.798;2022-09-03T13:02:45;22.20;69.30
27314;DHT22;14800;48.174;9.798;2022-09-03T13:05:17;22.20;68.90
27314;DHT22;14800;48.174;9.798;2022-09-03T13:07:50;22.20;69.00
27314;DHT22;14800;48.174;9.798;2022-09-03T13:10:26;22.30;69.20
27314;DHT22;14800;48.174;9.798;2022-09-03T13:12:58;22.40;70.60
27314;DHT22;14800;48.174;9.798;2022-09-03T13:15:24;22.40;69.70
27314;DHT22;14800;48.174;9.798;2022-09-03T13:18:26;22.50;69.50
27314;DHT22;14800;48.174;9.798;2022-09-03T13:21:11;22.50;70.40
27314;DHT22;14800;48.174;9.798;2022-09-03T13:26:41;22.50;69.60
27314;DHT22;14800;48.174;9.798;2022-09-03T13:32:02;22.50;69.40
27314;DHT22;14800;48.174;9.798;2022-09-03T13:34:39;22.40;69.30
27314;DHT22;14800;48.174;9.798;2022-09-03T13:39:53;22.40;70.00
27314;DHT22;14800;48.174;9.798;2022-09-03T13:42:25;22.40;70.70
27314;DHT22;14800;48.174;9.798;2022-09-03T13:47:47;22.30;71.40
27314;DHT22;14800;48.174;9.798;2022-09-03T13:50:50;22.30;72.30
27314;DHT22;14800;48.174;9.798;2022-09-03T13:59:34;22.10;71.30
27314;DHT22;14800;48.174;9.798;2022-09-03T14:05:03;21.90;72.00
27314;DHT22;14800;48.174;9.798;2022-09-03T14:13:27;21.90;70.60
27314;DHT22;14800;48.174;9.798;2022-09-03T14:19:06;21.90;71.10
27314;DHT22;14800;48.174;9.798;2022-09-03T14:24:49;22.00;71.30
27314;DHT22;14800;48.174;9.798;2022-09-03T14:27:24;22.10;70.40
27314;DHT22;14800;48.174;9.798;2022-09-03T14:29:57;22.10;69.50
27314;DHT22;14800;48.174;9.798;2022-09-03T14:32:31;22.20;69.20
27314;DHT22;14800;48.174;9.798;2022-09-03T14:38:11;22.20;67.90
27314;DHT22;14800;48.174;9.798;2022-09-03T14:40:44;22.20;67.40
27314;DHT22;14800;48.174;9.798;2022-09-03T14:46:09;22.30;66.90
27314;DHT22;14800;48.174;9.798;2022-09-03T14:48:56;22.40;67.30
27314;DHT22;14800;48.174;9.798;2022-09-03T14:51:30;22.40;66.80
27314;DHT22;14800;48.174;9.798;2022-09-03T15:07:48;22.70;62.90
27314;DHT22;14800;48.174;9.798;2022-09-03T15:13:08;22.70;63.90
27314;DHT22;14800;48.174;9.798;2022-09-03T15:16:00;22.80;63.10
27314;DHT22;14800;48.174;9.798;2022-09-03T15:35:51;23.00;63.30
27314;DHT22;14800;48.174;9.798;2022-09-03T15:40:55;23.00;62.20
27314;DHT22;14800;48.174;9.798;2022-09-03T15:43:25;23.10;62.60
27314;DHT22;14800;48.174;9.798;2022-09-03T15:46:03;23.10;62.40
27314;DHT22;14800;48.174;9.798;2022-09-03T15:48:56;23.10;62.00
27314;DHT22;14800;48.174;9.798;2022-09-03T15:51:46;23.10;62.40
27314;DHT22;14800;48.174;9.798;2022-09-03T15:54:22;23.10;60.80
27314;DHT22;14800;48.174;9.798;2022-09-03T15:56:57;23.10;61.90
27314;DHT22;14800;48.174;9.798;2022-09-03T15:59:42;23.20;62.10
27314;DHT22;14800;48.174;9.798;2022-09-03T16:02:19;23.20;61.50
27314;DHT22;14800;48.174;9.798;2022-09-03T16:04:52;23.20;61.80
27314;DHT22;14800;48.174;9.798;2022-09-03T16:08:01;23.20;61.70
27314;DHT22;14800;48.174;9.798;2022-09-03T16:13:57;23.30;59.20
27314;DHT22;14800;48.174;9.798;2022-09-03T16:19:23;23.30;59.40
27314;DHT22;14800;48.174;9.798;2022-09-03T16:29:39;23.30;60.50
27314;DHT22;14800;48.174;9.798;2022-09-03T16:42:59;23.50;60.30
27314;DHT22;14800;48.174;9.798;2022-09-03T16:51:09;23.90;60.30
27314;DHT22;14800;48.174;9.798;2022-09-03T17:08:21;24.50;58.30
27314;DHT22;14800;48.174;9.798;2022-09-03T17:13:27;24.70;57.90
27314;DHT22;14800;48.174;9.798;2022-09-03T17:35:09;24.60;58.20
27314;DHT22;14800;48.174;9.798;2022-09-03T17:46:11;24.30;59.00
27314;DHT22;14800;48.174;9.798;2022-09-03T17:48:53;24.10;58.90
27314;DHT22;14800;48.174;9.798;2022-09-03T17:51:40;23.90;59.10
27314;DHT22;14800;48.174;9.798;2022-09-03T18:07:31;23.00;62.30
27314;DHT22;14800;48.174;9.798;2022-09-03T18:13:33;22.80;63.20
27314;DHT22;14800;48.174;9.798;2022-09-03T18:16:18;22.70;63.60
27314;DHT22;14800;48.174;9.798;2022-09-03T18:18:49;22.60;64.00
27314;DHT22;14800;48.174;9.798;2022-09-03T18:21:24;22.50;64.00
27314;DHT22;14800;48.174;9.798;2022-09-03T18:27:26;22.40;64.70
27314;DHT22;14800;48.174;9.798;2022-09-03T18:30:13;22.30;64.90
27314;DHT22;14800;48.174;9.798;2022-09-03T18:32:58;22.20;65.00
27314;DHT22;14800;48.174;9.798;2022-09-03T18:35:43;22.10;65.30
27314;DHT22;14800;48.174;9.798;2022-09-03T18:38:34;22.10;65.80
27314;DHT22;14800;48.174;9.798;2022-09-03T18:54:01;21.50;67.40
27314;DHT22;14800;48.174;9.798;2022-09-03T18:56:50;21.40;67.80
27314;DHT22;14800;48.174;9.798;2022-09-03T19:06:29;21.20;69.00
27314;DHT22;14800;48.174;9.798;2022-09-03T19:13:06;21.10;69.60
27314;DHT22;14800;48.174;9.798;2022-09-03T19:16:16;21.00;69.30
27314;DHT22;14800;48.174;9.798;2022-09-03T19:19:23;20.90;69.90
27314;DHT22;14800;48.174;9.798;2022-09-03T19:22:10;20.90;69.70
27314;DHT22;14800;48.174;9.798;2022-09-03T19:25:09;20.90;69.20
27314;DHT22;14800;48.174;9.798;2022-09-03T19:28:12;20.80;70.00
27314;DHT22;14800;48.174;9.798;2022-09-03T19:37:25;20.70;70.70
27314;DHT22;14800;48.174;9.798;2022-09-03T19:46:30;20.50;71.10
27314;DHT22;14800;48.174;9.798;2022-09-03T19:55:26;20.30;70.70
27314;DHT22;14800;48.174;9.798;2022-09-03T19:58:17;20.30;71.40
27314;DHT22;14800;48.174;9.798;2022-09-03T20:01:02;20.30;71.40
27314;DHT22;14800;48.174;9.798;2022-09-03T20:03:46;20.20;71.40
27314;DHT22;14800;48.174;9.798;2022-09-03T20:06:32;20.20;71.50
27314;DHT22;14800;48.174;9.798;2022-09-03T20:09:22;20.20;71.80
27314;DHT22;14800;48.174;9.798;2022-09-03T20:12:09;20.10;71.80
27314;DHT22;14800;48.174;9.798;2022-09-03T20:14:37;20.10;71.90
27314;DHT22;14800;48.174;9.798;2022-09-03T20:17:12;20.00;72.10
27314;DHT22;14800;48.174;9.798;2022-09-03T20:22:22;20.00;72.80
27314;DHT22;14800;48.174;9.798;2022-09-03T20:30:21;19.90;73.20
27314;DHT22;14800;48.174;9.798;2022-09-03T20:46:43;19.60;73.00
27314;DHT22;14800;48.174;9.798;2022-09-03T20:52:18;19.60;74.00
27314;DHT22;14800;48.174;9.798;2022-09-03T20:55:06;19.50;73.50
27314;DHT22;14800;48.174;9.798;2022-09-03T21:00:11;19.40;73.70
27314;DHT22;14800;48.174;9.798;2022-09-03T21:03:04;19.30;73.90
27314;DHT22;14800;48.174;9.798;2022-09-03T21:10:56;19.20;74.70
27314;DHT22;14800;48.174;9.798;2022-09-03T21:13:44;19.20;74.60
27314;DHT22;14800;48.174;9.798;2022-09-03T21:16:58;19.10;75.50
27314;DHT22;14800;48.174;9.798;2022-09-03T21:19:07;19.20;74.60
27314;DHT22;14800;48.174;9.798;2022-09-03T21:21:40;19.10;74.80
27314;DHT22;14800;48.174;9.798;2022-09-03T21:24:25;19.10;74.80
27314;DHT22;14800;48.174;9.798;2022-09-03T21:26:58;19.10;74.70
27314;DHT22;14800;48.174;9.798;2022-09-03T21:29:33;19.10;74.60
27314;DHT22;14800;48.174;9.798;2022-09-03T21:32:10;19.00;74.80
27314;DHT22;14800;48.174;9.798;2022-09-03T21:37:34;19.00;75.80
27314;DHT22;14800;48.174;9.798;2022-09-03T21:40:02;18.90;75.20
27314;DHT22;14800;48.174;9.798;2022-09-03T21:42:43;18.90;75.20
27314;DHT22;14800;48.174;9.798;2022-09-03T21:45:17;18.90;77.10
27314;DHT22;14800;48.174;9.798;2022-09-03T21:47:54;18.90;75.80
27314;DHT22;14800;48.174;9.798;2022-09-03T21:50:30;18.80;76.10
27314;DHT22;14800;48.174;9.798;2022-09-03T21:53:11;18.80;76.00
27314;DHT22;14800;48.174;9.798;2022-09-03T21:55:41;18.80;76.40
27314;DHT22;14800;48.174;9.798;2022-09-03T22:01:06;18.70;76.60
27314;DHT22;14800;48.174;9.798;2022-09-03T22:03:33;18.60;76.20
27314;DHT22;14800;48.174;9.798;2022-09-03T22:06:06;18.60;76.00
27314;DHT22;14800;48.174;9.798;2022-09-03T22:08:44;18.50;76.60
27314;DHT22;14800;48.174;9.798;2022-09-03T22:11:34;18.50;76.60
27314;DHT22;14800;48.174;9.798;2022-09-03T22:14:14;18.50;76.70
27314;DHT22;14800;48.174;9.798;2022-09-03T22:17:03;18.40;76.60
27314;DHT22;14800;48.174;9.798;2022-09-03T22:19:33;18.40;77.00
27314;DHT22;14800;48.174;9.798;2022-09-03T22:22:13;18.40;76.40
27314;DHT22;14800;48.174;9.798;2022-09-03T22:25:20;18.40;76.80
27314;DHT22;14800;48.174;9.798;2022-09-03T22:30:32;18.30;76.90
27314;DHT22;14800;48.174;9.798;2022-09-03T22:33:26;18.30;77.10
27314;DHT22;14800;48.174;9.798;2022-09-03T22:36:13;18.20;77.60
27314;DHT22;14800;48.174;9.798;2022-09-03T22:39:03;18.20;77.70
27314;DHT22;14800;48.174;9.798;2022-09-03T22:50:01;18.00;77.30
27314;DHT22;14800;48.174;9.798;2022-09-03T22:52:53;18.00;78.00
27314;DHT22;14800;48.174;9.798;2022-09-03T22:55:24;18.00;78.20
27314;DHT22;14800;48.174;9.798;2022-09-03T23:00:22;17.90;77.90
27314;DHT22;14800;48.174;9.798;2022-09-03T23:02:55;17.90;78.00
27314;DHT22;14800;48.174;9.798;2022-09-03T23:13:53;17.90;79.50
27314;DHT22;14800;48.174;9.798;2022-09-03T23:18:53;17.90;78.90
27314;DHT22;14800;48.174;9.798;2022-09-03T23:21:40;17.90;78.70
27314;DHT22;14800;48.174;9.798;2022-09-03T23:24:23;17.90;78.90
27314;DHT22;14800;48.174;9.798;2022-09-03T23:26:50;17.80;79.10
27314;DHT22;14800;48.174;9.798;2022-09-03T23:29:33;17.90;79.00
27314;DHT22;14800;48.174;9.798;2022-09-03T23:32:02;17.90;79.50
27314;DHT22;14800;48.174;9.798;2022-09-03T23:34:31;17.90;78.90
27314;DHT22;14800;48.174;9.798;2022-09-03T23:42:30;17.90;78.50
27314;DHT22;14800;48.174;9.798;2022-09-03T23:45:08;17.80;79.40